Terminal Aerodrome Forecast
Issued by NWS Charleston, WV

Current Version | Previous Version | Graphics & Text | Print | Product List | Glossary On
Versions: 1 2 3 4 5 6 7 8 9 10 11 12 13 14 15 16 17 18 19 20 21 22
000
FTUS41 KRLX 120500
TAFHTS
TAF
KHTS 120535Z 1206/1306 00000KT 6SM BR SKC
      TEMPO 1208/1212 4SM BR
     FM121400 22004KT P6SM SKC
     FM121700 24006KT P6SM SCT050
     FM122300 25004KT P6SM SCT150
     FM130200 00000KT P6SM BKN150=

USA.gov is the U.S. government's official web portal to all federal, state and local government web resources and services.